createdAt,value
2019-03-11T00:01:10.168Z,-1.70
2019-03-11T00:03:39.126Z,-1.70
2019-03-11T00:06:08.137Z,-1.80
2019-03-11T00:08:37.124Z,-1.80
2019-03-11T00:11:08.141Z,-1.80
2019-03-11T00:13:38.665Z,-1.80
2019-03-11T00:16:08.641Z,-1.90
2019-03-11T00:18:41.043Z,-1.80
2019-03-11T00:21:10.244Z,-1.90
2019-03-11T00:23:41.021Z,-1.90
2019-03-11T00:26:10.251Z,-1.90
2019-03-11T00:28:40.813Z,-1.90
2019-03-11T00:31:10.003Z,-1.90
2019-03-11T00:33:38.990Z,-1.90
2019-03-11T00:36:08.387Z,-2.00
2019-03-11T00:38:37.484Z,-2.00
2019-03-11T00:41:06.694Z,-2.00
2019-03-11T00:43:35.858Z,-2.00
2019-03-11T00:46:04.736Z,-2.00
2019-03-11T00:48:34.611Z,-2.00
2019-03-11T00:51:03.807Z,-2.00
2019-03-11T00:53:32.824Z,-2.00
2019-03-11T00:56:01.946Z,-2.00
2019-03-11T00:58:34.384Z,-2.00
2019-03-11T01:01:04.981Z,-2.10
2019-03-11T01:03:36.167Z,-2.10
2019-03-11T01:06:05.116Z,-2.10
2019-03-11T01:08:34.386Z,-2.10
2019-03-11T01:11:03.865Z,-2.10
2019-03-11T01:13:55.020Z,-2.20
2019-03-11T01:16:23.959Z,-2.20
2019-03-11T01:18:55.756Z,-2.20
2019-03-11T01:21:25.023Z,-2.20
2019-03-11T01:23:53.863Z,-2.20
2019-03-11T01:26:22.700Z,-2.20
2019-03-11T01:28:51.800Z,-2.20
2019-03-11T01:31:24.021Z,-2.30
2019-03-11T01:33:53.121Z,-2.30
2019-03-11T01:36:24.728Z,-2.30
2019-03-11T01:38:53.673Z,-2.40
2019-03-11T01:41:23.429Z,-2.40
2019-03-11T01:43:52.732Z,-2.40
2019-03-11T01:46:21.684Z,-2.40
2019-03-11T01:48:50.652Z,-2.40
2019-03-11T01:51:25.856Z,-2.50
2019-03-11T01:53:54.868Z,-2.50
2019-03-11T01:56:23.918Z,-2.50
2019-03-11T01:58:52.948Z,-2.50
2019-03-11T02:01:22.221Z,-2.50
2019-03-11T02:03:51.667Z,-2.50
2019-03-11T02:06:23.306Z,-2.50
2019-03-11T02:08:52.540Z,-2.50
2019-03-11T02:11:21.518Z,-2.50
2019-03-11T02:13:50.879Z,-2.60
2019-03-11T02:16:19.964Z,-2.50
2019-03-11T02:18:49.276Z,-2.50
2019-03-11T02:21:18.338Z,-2.60
2019-03-11T02:23:50.617Z,-2.60
2019-03-11T02:26:18.283Z,-2.60
2019-03-11T02:28:47.631Z,-2.60
2019-03-11T02:31:16.662Z,-2.60
2019-03-11T02:33:47.056Z,-2.60
2019-03-11T02:36:16.046Z,-2.70
2019-03-11T02:38:46.981Z,-2.70
2019-03-11T02:41:16.590Z,-2.70
2019-03-11T02:43:45.536Z,-2.70
2019-03-11T02:46:14.913Z,-2.70
2019-03-11T02:48:43.787Z,-2.70
2019-03-11T02:51:12.638Z,-2.70
2019-03-11T02:53:41.569Z,-2.70
2019-03-11T02:56:10.862Z,-2.70
2019-03-11T02:58:39.699Z,-2.70
2019-03-11T03:01:26.150Z,-2.70
2019-03-11T03:04:00.037Z,-2.70
2019-03-11T03:06:28.957Z,-2.70
2019-03-11T03:08:58.116Z,-2.70
2019-03-11T03:11:27.261Z,-2.70
2019-03-11T03:13:56.153Z,-2.70
2019-03-11T03:16:25.524Z,-2.80
2019-03-11T03:18:54.438Z,-2.70
2019-03-11T03:21:23.323Z,-2.70
2019-03-11T03:23:54.909Z,-2.80
2019-03-11T03:26:24.339Z,-2.70
2019-03-11T03:28:53.195Z,-2.80
2019-03-11T03:31:22.212Z,-2.80
2019-03-11T03:33:52.055Z,-2.80
2019-03-11T03:36:20.933Z,-2.80
2019-03-11T03:38:51.927Z,-2.90
2019-03-11T03:41:21.623Z,-2.90
2019-03-11T03:43:57.765Z,-2.90
2019-03-11T03:46:26.902Z,-2.90
2019-03-11T03:48:56.954Z,-3.00
2019-03-11T03:51:25.872Z,-3.00
2019-03-11T03:53:56.065Z,-3.00
2019-03-11T03:56:28.032Z,-3.00
2019-03-11T03:58:57.181Z,-3.00
2019-03-11T04:01:27.994Z,-3.00
2019-03-11T04:04:00.275Z,-3.00
2019-03-11T04:06:29.533Z,-3.00
2019-03-11T04:08:58.483Z,-3.00
2019-03-11T04:11:27.712Z,-3.10
2019-03-11T04:14:00.331Z,-3.00
2019-03-11T04:16:29.418Z,-3.10
2019-03-11T04:18:58.901Z,-3.10
2019-03-11T04:21:29.428Z,-3.10
2019-03-11T04:23:59.364Z,-3.10
2019-03-11T04:26:29.027Z,-3.10
2019-03-11T04:28:58.386Z,-3.10
2019-03-11T04:31:29.530Z,-3.10
2019-03-11T04:34:03.868Z,-3.20
2019-03-11T04:36:32.989Z,-3.20
2019-03-11T04:39:01.946Z,-3.20
2019-03-11T04:41:30.953Z,-3.20
2019-03-11T04:44:01.197Z,-3.20
2019-03-11T04:46:36.260Z,-3.20
2019-03-11T04:49:09.712Z,-3.20
2019-03-11T04:51:40.399Z,-3.20
2019-03-11T04:54:11.383Z,-3.20
2019-03-11T04:56:40.528Z,-3.20
2019-03-11T04:59:13.472Z,-3.30
2019-03-11T05:01:42.802Z,-3.20
2019-03-11T05:04:11.661Z,-3.30
2019-03-11T05:06:40.973Z,-3.30
2019-03-11T05:09:12.847Z,-3.30
2019-03-11T05:11:43.793Z,-3.30
2019-03-11T05:14:15.873Z,-3.40
2019-03-11T05:16:49.365Z,-3.40
2019-03-11T05:19:18.363Z,-3.40
2019-03-11T05:21:47.475Z,-3.40
2019-03-11T05:24:16.671Z,-3.40
2019-03-11T05:27:08.306Z,-3.40
2019-03-11T05:29:37.691Z,-3.40
2019-03-11T05:32:07.439Z,-3.40
2019-03-11T05:34:37.215Z,-3.40
2019-03-11T05:37:10.784Z,-3.40
2019-03-11T05:39:40.114Z,-3.40
2019-03-11T05:42:09.415Z,-3.50
2019-03-11T05:44:44.047Z,-3.50
2019-03-11T05:47:12.848Z,-3.50
2019-03-11T05:49:49.642Z,-3.50
2019-03-11T05:52:23.422Z,-3.50
2019-03-11T05:54:53.952Z,-3.50
2019-03-11T05:57:25.842Z,-3.40
2019-03-11T05:59:57.117Z,-3.40
2019-03-11T06:02:26.058Z,-3.50
2019-03-11T06:05:03.790Z,-3.50
2019-03-11T06:07:33.025Z,-3.50
2019-03-11T06:10:02.629Z,-3.50
2019-03-11T06:12:33.356Z,-3.50
2019-03-11T06:15:02.266Z,-3.50
2019-03-11T06:17:32.179Z,-3.50
2019-03-11T06:20:09.778Z,-3.50
2019-03-11T06:22:41.705Z,-3.50
2019-03-11T06:25:11.940Z,-3.50
2019-03-11T06:27:40.927Z,-3.50
2019-03-11T06:30:12.013Z,-3.50
2019-03-11T06:32:43.408Z,-3.50
2019-03-11T06:35:12.332Z,-3.50
2019-03-11T06:37:41.873Z,-3.50
2019-03-11T06:40:12.085Z,-3.50
2019-03-11T06:42:41.120Z,-3.50
2019-03-11T06:45:14.862Z,-3.50
2019-03-11T06:47:47.312Z,-3.50
2019-03-11T06:50:37.910Z,-3.50
2019-03-11T06:52:56.498Z,-3.50
2019-03-11T06:55:25.500Z,-3.50
2019-03-11T06:57:54.392Z,-3.50
2019-03-11T07:00:23.539Z,-3.50
2019-03-11T07:02:52.936Z,-3.50
2019-03-11T07:05:25.619Z,-3.50
2019-03-11T07:07:57.796Z,-3.50
2019-03-11T07:10:28.326Z,-3.50
2019-03-11T07:12:59.254Z,-3.40
2019-03-11T07:15:30.936Z,-3.40
2019-03-11T07:18:01.551Z,-3.40
2019-03-11T07:20:32.697Z,-3.40
2019-03-11T07:23:01.940Z,-3.40
2019-03-11T07:25:31.052Z,-3.40
2019-03-11T07:28:01.670Z,-3.40
2019-03-11T07:30:36.874Z,-3.30
2019-03-11T07:33:07.126Z,-3.30
2019-03-11T07:35:36.279Z,-3.30
2019-03-11T07:38:11.120Z,-3.30
2019-03-11T07:40:41.907Z,-3.30
2019-03-11T07:43:11.630Z,-3.30
2019-03-11T07:45:40.692Z,-3.30
2019-03-11T07:48:11.380Z,-3.30
2019-03-11T07:50:55.854Z,-3.30
2019-03-11T07:53:24.917Z,-3.30
2019-03-11T07:55:53.888Z,-3.30
2019-03-11T07:58:22.740Z,-3.30
2019-03-11T08:00:56.385Z,-3.20
2019-03-11T08:03:25.354Z,-3.20
2019-03-11T08:05:54.958Z,-3.20
2019-03-11T08:08:28.346Z,-3.20
2019-03-11T08:11:00.669Z,-3.20
2019-03-11T08:13:31.094Z,-3.20
2019-03-11T08:16:00.071Z,-3.10
2019-03-11T08:18:35.230Z,-3.10
2019-03-11T08:21:05.067Z,-3.10
2019-03-11T08:23:35.815Z,-3.10
2019-03-11T08:26:07.965Z,-3.00
2019-03-11T08:28:37.138Z,-3.00
2019-03-11T08:31:06.494Z,-3.00
2019-03-11T08:33:39.859Z,-3.00
2019-03-11T08:36:08.826Z,-3.00
2019-03-11T08:38:37.910Z,-2.90
2019-03-11T08:41:06.869Z,-2.90
2019-03-11T08:43:37.975Z,-2.90
2019-03-11T08:46:07.052Z,-2.90
2019-03-11T08:48:36.864Z,-2.90
2019-03-11T08:51:07.086Z,-2.90
2019-03-11T08:53:40.832Z,-2.90
2019-03-11T08:56:09.884Z,-2.80
2019-03-11T08:58:41.213Z,-2.80
2019-03-11T09:01:12.337Z,-2.80
2019-03-11T09:03:44.515Z,-2.80
2019-03-11T09:06:13.672Z,-2.70
2019-03-11T09:08:44.216Z,-2.70
2019-03-11T09:11:14.606Z,-2.70
2019-03-11T09:13:44.009Z,-2.70
2019-03-11T09:16:14.778Z,-2.60
2019-03-11T09:18:44.045Z,-2.60
2019-03-11T09:21:13.244Z,-2.50
2019-03-11T09:23:42.295Z,-2.50
2019-03-11T09:26:11.648Z,-2.50
2019-03-11T09:28:40.888Z,-2.40
2019-03-11T09:31:10.146Z,-2.40
2019-03-11T09:33:39.378Z,-2.30
2019-03-11T09:36:09.425Z,-2.30
2019-03-11T09:38:38.837Z,-2.30
2019-03-11T09:41:07.881Z,-2.20
2019-03-11T09:43:38.103Z,-2.20
2019-03-11T09:46:07.289Z,-2.20
2019-03-11T09:48:44.766Z,-2.10
2019-03-11T09:51:12.858Z,-2.10
2019-03-11T09:53:45.811Z,-2.00
2019-03-11T09:56:15.225Z,-2.00
2019-03-11T09:58:44.154Z,-1.90
2019-03-11T10:01:13.542Z,-1.90
2019-03-11T10:03:42.932Z,-1.90
2019-03-11T10:06:12.006Z,-1.80
2019-03-11T10:08:40.991Z,-1.70
2019-03-11T10:11:15.062Z,-1.70
2019-03-11T10:13:45.822Z,-1.60
2019-03-11T10:16:15.406Z,-1.60
2019-03-11T10:18:44.441Z,-1.50
2019-03-11T10:21:13.366Z,-1.50
2019-03-11T10:23:46.615Z,-1.50
2019-03-11T10:26:20.991Z,-1.40
2019-03-11T10:28:49.969Z,-1.40
2019-03-11T10:31:19.831Z,-1.30
2019-03-11T10:33:49.438Z,-1.30
2019-03-11T10:36:18.583Z,-1.20
2019-03-11T10:38:51.774Z,-1.20
2019-03-11T10:41:25.650Z,-1.10
2019-03-11T10:43:55.185Z,-1.00
2019-03-11T10:46:24.193Z,-0.90
2019-03-11T10:48:53.229Z,-0.80
2019-03-11T10:51:22.591Z,-0.80
2019-03-11T10:53:54.380Z,-0.80
2019-03-11T10:56:23.562Z,-0.70
2019-03-11T10:58:52.409Z,-0.70
2019-03-11T11:01:22.755Z,-0.70
2019-03-11T11:03:51.755Z,-0.70
2019-03-11T11:06:20.667Z,-0.60
2019-03-11T11:08:50.253Z,-0.50
2019-03-11T11:11:19.792Z,-0.40
2019-03-11T11:13:51.600Z,-0.40
2019-03-11T11:16:23.633Z,-0.30
2019-03-11T11:18:52.709Z,-0.30
2019-03-11T11:21:22.160Z,-0.20
2019-03-11T11:23:53.481Z,-0.20
2019-03-11T11:26:22.702Z,-0.20
2019-03-11T11:28:51.680Z,-0.20
2019-03-11T11:31:21.040Z,-0.10
2019-03-11T11:33:50.441Z,-0.10
2019-03-11T11:36:19.672Z,-0.10
2019-03-11T11:38:49.132Z,-0.10
2019-03-11T11:41:18.527Z,-0.10
2019-03-11T11:43:48.248Z,0.00
2019-03-11T11:46:17.366Z,0.00
2019-03-11T11:48:46.558Z,0.00
2019-03-11T11:51:19.475Z,0.10
2019-03-11T11:53:48.984Z,0.10
2019-03-11T11:56:19.444Z,0.10
2019-03-11T11:58:49.709Z,0.20
2019-03-11T12:01:19.418Z,0.20
2019-03-11T12:03:48.893Z,0.20
2019-03-11T12:06:19.568Z,0.30
2019-03-11T12:08:48.706Z,0.30
2019-03-11T12:11:17.803Z,0.30
2019-03-11T12:13:49.638Z,0.30
2019-03-11T12:16:18.848Z,0.40
2019-03-11T12:18:48.264Z,0.40
2019-03-11T12:21:17.671Z,0.40
2019-03-11T12:23:50.172Z,0.50
2019-03-11T12:26:17.717Z,0.50
2019-03-11T12:28:50.527Z,0.60
2019-03-11T12:31:21.660Z,0.60
2019-03-11T12:33:52.577Z,0.70
2019-03-11T12:36:21.991Z,0.80
2019-03-11T12:38:51.318Z,0.80
2019-03-11T12:41:20.511Z,0.90
2019-03-11T12:43:49.776Z,1.00
2019-03-11T12:46:20.714Z,1.00
2019-03-11T12:48:49.802Z,1.10
2019-03-11T12:51:19.845Z,1.10
2019-03-11T12:53:51.993Z,1.10
2019-03-11T12:56:21.404Z,1.10
2019-03-11T12:58:50.646Z,1.10
2019-03-11T13:01:22.628Z,1.20
2019-03-11T13:03:51.668Z,1.20
2019-03-11T13:06:20.630Z,1.30
2019-03-11T13:08:52.490Z,1.30
2019-03-11T13:11:21.762Z,1.30
2019-03-11T13:13:52.346Z,1.40
2019-03-11T13:16:21.783Z,1.40
2019-03-11T13:18:51.222Z,1.40
2019-03-11T13:21:29.842Z,1.50
2019-03-11T13:23:58.728Z,1.50
2019-03-11T13:26:27.735Z,1.60
2019-03-11T13:28:56.786Z,1.50
2019-03-11T13:31:27.466Z,1.60
2019-03-11T13:33:56.860Z,1.60
2019-03-11T13:36:25.724Z,1.70
2019-03-11T13:38:54.695Z,1.70
2019-03-11T13:41:23.602Z,1.70
2019-03-11T13:43:52.871Z,1.80
2019-03-11T13:46:22.436Z,1.80
2019-03-11T13:48:54.546Z,1.80
2019-03-11T13:51:23.415Z,1.80
2019-03-11T13:53:52.651Z,1.80
2019-03-11T13:56:21.685Z,1.80
2019-03-11T13:58:50.736Z,1.80
2019-03-11T14:01:21.377Z,1.70
2019-03-11T14:03:50.750Z,1.60
2019-03-11T14:06:23.897Z,1.60
2019-03-11T14:08:54.688Z,1.60
2019-03-11T14:11:23.518Z,1.50
2019-03-11T14:13:57.944Z,1.50
2019-03-11T14:16:26.859Z,1.40
2019-03-11T14:18:55.841Z,1.40
2019-03-11T14:21:25.991Z,1.30
2019-03-11T14:23:55.088Z,1.30
2019-03-11T14:26:24.041Z,1.30
2019-03-11T14:29:00.992Z,1.20
2019-03-11T14:31:29.936Z,1.20
2019-03-11T14:33:58.792Z,1.20
2019-03-11T14:36:27.869Z,1.20
2019-03-11T14:38:57.409Z,1.20
2019-03-11T14:41:26.444Z,1.20
2019-03-11T14:43:55.627Z,1.10
2019-03-11T14:46:24.621Z,1.10
2019-03-11T14:48:57.806Z,1.10
2019-03-11T14:51:27.096Z,1.10
2019-03-11T14:53:58.618Z,1.10
2019-03-11T14:56:30.457Z,1.10
2019-03-11T14:58:59.406Z,1.10
2019-03-11T15:01:30.497Z,1.10
2019-03-11T15:03:59.827Z,1.10
2019-03-11T15:06:28.707Z,1.00
2019-03-11T15:08:58.594Z,1.00
2019-03-11T15:11:27.429Z,0.90
2019-03-11T15:13:56.540Z,0.90
2019-03-11T15:16:25.717Z,0.90
2019-03-11T15:18:54.741Z,0.80
2019-03-11T15:21:23.611Z,0.80
2019-03-11T15:23:52.627Z,0.70
2019-03-11T15:26:25.437Z,0.70
2019-03-11T15:28:54.963Z,0.60
2019-03-11T15:31:24.753Z,0.60
2019-03-11T15:33:54.423Z,0.50
2019-03-11T15:36:33.112Z,0.50
2019-03-11T15:38:54.399Z,0.50
2019-03-11T15:41:23.399Z,0.50
2019-03-11T15:43:52.217Z,0.50
2019-03-11T15:46:21.549Z,0.50
2019-03-11T15:48:50.795Z,0.50
2019-03-11T15:51:20.509Z,0.50
2019-03-11T15:53:49.761Z,0.40
2019-03-11T15:56:18.778Z,0.40
2019-03-11T15:58:47.652Z,0.40
2019-03-11T16:01:16.512Z,0.40
2019-03-11T16:03:45.386Z,0.30
2019-03-11T16:06:14.767Z,0.30
2019-03-11T16:08:43.689Z,0.30
2019-03-11T16:11:13.395Z,0.20
2019-03-11T16:13:42.639Z,0.20
2019-03-11T16:16:11.918Z,0.20
2019-03-11T16:18:41.952Z,0.10
2019-03-11T16:21:10.905Z,0.10
2019-03-11T16:23:40.099Z,0.10
2019-03-11T16:26:09.139Z,0.10
2019-03-11T16:28:47.767Z,0.00
2019-03-11T16:31:09.141Z,0.00
2019-03-11T16:33:38.544Z,0.00
2019-03-11T16:36:07.584Z,-0.10
2019-03-11T16:38:36.789Z,-0.10
2019-03-11T16:41:05.714Z,-0.10
2019-03-11T16:43:35.138Z,-0.10
2019-03-11T16:46:04.759Z,-0.20
2019-03-11T16:48:33.696Z,-0.20
2019-03-11T16:51:03.480Z,-0.20
2019-03-11T16:53:32.964Z,-0.20
2019-03-11T16:56:07.513Z,-0.10
2019-03-11T16:58:35.262Z,-0.30
2019-03-11T17:01:11.657Z,-0.30
2019-03-11T17:03:41.221Z,-0.40
2019-03-11T17:06:10.824Z,-0.40
2019-03-11T17:08:40.137Z,-0.40
2019-03-11T17:11:09.250Z,-0.40
2019-03-11T17:13:38.318Z,-0.50
2019-03-11T17:16:08.608Z,-0.50
2019-03-11T17:18:38.283Z,-0.50
2019-03-11T17:21:09.628Z,-0.50
2019-03-11T17:23:39.394Z,-0.50
2019-03-11T17:26:12.452Z,-0.60
2019-03-11T17:28:43.451Z,-0.60
2019-03-11T17:31:12.939Z,-0.60
2019-03-11T17:33:42.208Z,-0.60
2019-03-11T17:36:12.214Z,-0.60
2019-03-11T17:38:42.031Z,-0.70
2019-03-11T17:41:11.053Z,-0.70
2019-03-11T17:43:42.228Z,-0.70
2019-03-11T17:46:10.946Z,-0.70
2019-03-11T17:48:40.198Z,-0.80
2019-03-11T17:51:10.597Z,-0.80
2019-03-11T17:53:40.188Z,-0.80
2019-03-11T17:56:09.590Z,-0.80
2019-03-11T17:58:38.473Z,-0.80
2019-03-11T18:01:07.803Z,-0.90
2019-03-11T18:03:36.945Z,-0.90
2019-03-11T18:06:11.602Z,-0.90
2019-03-11T18:08:36.458Z,-0.90
2019-03-11T18:11:05.391Z,-1.00
2019-03-11T18:13:34.570Z,-1.00
2019-03-11T18:16:06.162Z,-1.00
2019-03-11T18:18:37.071Z,-1.00
2019-03-11T18:21:07.276Z,-1.00
2019-03-11T18:23:36.445Z,-0.90
2019-03-11T18:26:05.479Z,-1.00
2019-03-11T18:28:36.206Z,-1.10
2019-03-11T18:31:05.619Z,-1.10
2019-03-11T18:33:34.694Z,-1.10
2019-03-11T18:36:04.083Z,-1.10
2019-03-11T18:38:33.265Z,-1.10
2019-03-11T18:41:02.086Z,-1.20
2019-03-11T18:43:42.178Z,-1.20
2019-03-11T18:46:02.183Z,-1.20
2019-03-11T18:48:31.735Z,-1.20
2019-03-11T18:51:10.369Z,-1.20
2019-03-11T18:53:32.280Z,-1.30
2019-03-11T18:56:01.243Z,-1.30
2019-03-11T18:58:30.206Z,-1.30
2019-03-11T19:01:00.036Z,-1.30
2019-03-11T19:03:31.075Z,-1.30
2019-03-11T19:06:00.928Z,-1.30
2019-03-11T19:08:30.307Z,-1.30
2019-03-11T19:10:59.235Z,-1.30
2019-03-11T19:13:28.273Z,-1.40
2019-03-11T19:15:57.704Z,-1.30
2019-03-11T19:18:26.633Z,-1.40
2019-03-11T19:20:57.608Z,-1.40
2019-03-11T19:23:26.498Z,-1.40
2019-03-11T19:25:55.913Z,-1.40
2019-03-11T19:28:26.570Z,-1.40
2019-03-11T19:30:58.406Z,-1.40
2019-03-11T19:33:27.665Z,-1.50
2019-03-11T19:35:57.097Z,-1.50
2019-03-11T19:38:26.214Z,-1.50
2019-03-11T19:40:56.129Z,-1.50
2019-03-11T19:43:25.515Z,-1.50
2019-03-11T19:45:55.948Z,-1.50
2019-03-11T19:48:25.211Z,-1.60
2019-03-11T19:50:54.140Z,-1.60
2019-03-11T19:53:23.548Z,-1.60
2019-03-11T19:55:52.434Z,-1.60
2019-03-11T19:58:21.874Z,-1.60
2019-03-11T20:00:50.901Z,-1.60
2019-03-11T20:03:27.888Z,-1.70
2019-03-11T20:05:54.015Z,-1.70
2019-03-11T20:08:23.543Z,-1.70
2019-03-11T20:10:52.727Z,-1.70
2019-03-11T20:13:23.641Z,-1.70
2019-03-11T20:15:53.960Z,-1.70
2019-03-11T20:18:23.234Z,-1.70
2019-03-11T20:20:52.885Z,-1.70
2019-03-11T20:23:24.629Z,-1.70
2019-03-11T20:25:53.445Z,-1.80
2019-03-11T20:28:22.877Z,-1.80
2019-03-11T20:30:51.919Z,-1.80
2019-03-11T20:33:22.425Z,-1.80
2019-03-11T20:35:51.551Z,-1.80
2019-03-11T20:38:23.750Z,-1.80
2019-03-11T20:40:52.999Z,-1.80
2019-03-11T20:43:22.245Z,-1.90
2019-03-11T20:45:51.534Z,-1.90
2019-03-11T20:48:20.726Z,-1.90
2019-03-11T20:50:49.741Z,-1.90
2019-03-11T20:53:19.354Z,-2.00
2019-03-11T20:55:49.058Z,-2.00
2019-03-11T20:58:17.963Z,-2.00
2019-03-11T21:00:47.076Z,-2.00
2019-03-11T21:03:16.011Z,-2.00
2019-03-11T21:05:47.298Z,-2.00
2019-03-11T21:08:16.345Z,-2.10
2019-03-11T21:10:49.984Z,-2.10
2019-03-11T21:13:21.885Z,-2.10
2019-03-11T21:15:53.803Z,-2.10
2019-03-11T21:18:23.923Z,-2.20
2019-03-11T21:21:04.043Z,-2.20
2019-03-11T21:23:26.045Z,-2.20
2019-03-11T21:25:56.681Z,-2.20
2019-03-11T21:28:24.890Z,-2.20
2019-03-11T21:30:53.896Z,-2.20
2019-03-11T21:33:23.148Z,-2.20
2019-03-11T21:35:52.154Z,-2.20
2019-03-11T21:38:21.363Z,-2.30
2019-03-11T21:40:52.028Z,-2.30
2019-03-11T21:43:21.078Z,-2.30
2019-03-11T21:45:50.044Z,-2.30
2019-03-11T21:48:19.258Z,-2.30
2019-03-11T21:50:50.669Z,-2.40
2019-03-11T21:53:19.573Z,-2.30
2019-03-11T21:55:51.644Z,-2.40
2019-03-11T21:58:23.568Z,-2.40
2019-03-11T22:00:56.872Z,-2.40
2019-03-11T22:03:25.722Z,-2.40
2019-03-11T22:05:54.684Z,-2.40
2019-03-11T22:08:23.803Z,-2.50
2019-03-11T22:10:52.963Z,-2.50
2019-03-11T22:13:22.178Z,-2.50
2019-03-11T22:15:52.359Z,-2.50
2019-03-11T22:18:22.833Z,-2.50
2019-03-11T22:20:53.471Z,-2.50
2019-03-11T22:23:23.296Z,-2.50
2019-03-11T22:25:53.216Z,-2.60
2019-03-11T22:28:22.983Z,-2.50
2019-03-11T22:30:51.860Z,-2.60
2019-03-11T22:33:23.565Z,-2.60
2019-03-11T22:35:52.859Z,-2.60
2019-03-11T22:38:22.034Z,-2.60
2019-03-11T22:40:51.741Z,-2.60
2019-03-11T22:43:26.507Z,-2.70
2019-03-11T22:45:55.482Z,-2.70
2019-03-11T22:48:24.294Z,-2.70
2019-03-11T22:53:35.613Z,-2.70
2019-03-11T22:56:04.700Z,-2.70
2019-03-11T22:58:34.162Z,-2.70
2019-03-11T23:01:03.696Z,-2.80
2019-03-11T23:03:37.019Z,-2.80
2019-03-11T23:06:06.321Z,-2.80
2019-03-11T23:08:35.244Z,-2.80
2019-03-11T23:11:04.381Z,-2.90
2019-03-11T23:13:33.728Z,-2.90
2019-03-11T23:16:02.941Z,-2.90
2019-03-11T23:18:31.848Z,-2.90
2019-03-11T23:21:03.979Z,-2.90
2019-03-11T23:23:32.841Z,-3.00
2019-03-11T23:26:01.985Z,-3.00
2019-03-11T23:28:30.805Z,-3.00
2019-03-11T23:30:59.791Z,-3.00
2019-03-11T23:33:29.062Z,-3.00
2019-03-11T23:35:58.010Z,-3.00
2019-03-11T23:38:27.337Z,-3.10
2019-03-11T23:40:56.232Z,-3.00
2019-03-11T23:43:25.471Z,-3.10
2019-03-11T23:45:55.063Z,-3.10
2019-03-11T23:48:24.009Z,-3.10
2019-03-11T23:50:56.336Z,-3.10
2019-03-11T23:53:25.841Z,-3.10
2019-03-11T23:55:54.925Z,-3.10
2019-03-11T23:58:23.982Z,-3.20
